Time;durP1;ratioP1;P1;durP2;ratioP2;P2;SDS_P1;SDS_P2;PMS_P1;PMS_P2;Temp;Humidity;BMP_temperature;BMP_pressure;BME280_temperature;BME280_humidity;BME280_pressure;Samples;Min_cycle;Max_cycle;Signal;HPM_P1;HPM_P2
2023/03/26 00:01:07;;;;;;;10.63;2.65;;;7.90;99.90;;;;;;5087199;28;20047;-71
2023/03/26 00:03:34;;;;;;;8.07;1.70;;;7.90;99.90;;;;;;5072513;28;20155;-71
2023/03/26 00:06:09;;;;;;;14.10;2.25;;;7.90;99.90;;;;;;5083212;28;20441;-71
2023/03/26 00:08:36;;;;;;;12.13;2.25;;;7.90;99.90;;;;;;5091217;28;20471;-71
2023/03/26 00:11:03;;;;;;;9.85;2.45;;;7.90;99.90;;;;;;5079093;28;20040;-71
2023/03/26 00:13:31;;;;;;;14.38;2.45;;;7.90;99.90;;;;;;5088622;28;20063;-70
2023/03/26 00:15:56;;;;;;;13.57;2.83;;;7.90;99.90;;;;;;5091058;28;20483;-71
2023/03/26 00:18:33;;;;;;;11.35;2.50;;;7.80;99.90;;;;;;5090665;28;20054;-71
2023/03/26 00:21:02;;;;;;;18.23;2.88;;;7.80;99.90;;;;;;5058450;28;20052;-70
2023/03/26 00:23:30;;;;;;;15.45;2.70;;;7.80;99.90;;;;;;5079672;28;20045;-70
2023/03/26 00:25:56;;;;;;;11.65;2.47;;;7.80;99.90;;;;;;5078156;28;20047;-70
2023/03/26 00:28:22;;;;;;;13.43;2.83;;;7.70;99.90;;;;;;5089274;28;20524;-70
2023/03/26 00:30:49;;;;;;;12.77;2.60;;;7.60;99.90;;;;;;5052405;28;20419;-70
2023/03/26 00:33:18;;;;;;;15.25;2.85;;;7.50;99.90;;;;;;5085069;28;20555;-71
2023/03/26 00:35:45;;;;;;;13.25;2.60;;;7.50;99.90;;;;;;5045826;28;20047;-70
2023/03/26 00:38:14;;;;;;;13.25;2.38;;;7.50;99.90;;;;;;5054163;28;20719;-70
2023/03/26 00:40:42;;;;;;;7.85;1.80;;;7.40;99.90;;;;;;5082798;28;20055;-70
2023/03/26 00:43:17;;;;;;;12.43;2.10;;;7.40;99.90;;;;;;5088366;28;20462;-69
2023/03/26 00:45:47;;;;;;;10.52;2.28;;;7.30;99.90;;;;;;5065892;28;20043;-70
2023/03/26 00:48:15;;;;;;;13.68;2.45;;;7.30;99.90;;;;;;5082249;28;20105;-70
2023/03/26 00:50:41;;;;;;;10.10;1.70;;;7.30;99.90;;;;;;5086252;28;20040;-70
2023/03/26 00:53:10;;;;;;;10.60;2.38;;;7.30;99.90;;;;;;5080887;28;20052;-69
2023/03/26 00:55:37;;;;;;;6.18;1.55;;;7.30;99.90;;;;;;5088170;28;20072;-70
2023/03/26 00:58:03;;;;;;;14.75;2.58;;;7.30;99.90;;;;;;5070763;28;20048;-71
2023/03/26 01:00:33;;;;;;;9.85;2.13;;;7.20;99.90;;;;;;5085770;28;20556;-70
2023/03/26 01:03:00;;;;;;;10.48;2.38;;;7.30;99.90;;;;;;5082249;28;20044;-70
2023/03/26 01:05:34;;;;;;;9.77;1.90;;;7.20;99.90;;;;;;5071159;28;20063;-70
2023/03/26 01:08:30;;;;;;;12.27;2.42;;;7.20;99.90;;;;;;5072954;28;20496;-70
2023/03/26 01:11:06;;;;;;;17.90;3.22;;;7.20;99.90;;;;;;5073455;28;20048;-70
2023/03/26 01:13:35;;;;;;;9.95;2.72;;;7.20;99.90;;;;;;5080009;28;20052;-71
2023/03/26 01:16:05;;;;;;;11.45;2.30;;;7.20;99.90;;;;;;5054472;28;20058;-70
2023/03/26 01:18:39;;;;;;;10.07;2.10;;;7.20;99.90;;;;;;5073019;28;20521;-70
2023/03/26 01:21:08;;;;;;;13.63;3.05;;;7.20;99.90;;;;;;5084415;28;20529;-70
2023/03/26 01:23:36;;;;;;;14.88;2.63;;;7.20;99.90;;;;;;5084247;28;20139;-71
2023/03/26 01:26:16;;;;;;;8.30;1.90;;;7.20;99.90;;;;;;5086514;28;20044;-71
2023/03/26 01:28:42;;;;;;;9.27;1.63;;;7.20;99.90;;;;;;5084299;28;20380;-70
2023/03/26 01:31:24;;;;;;;13.13;2.40;;;7.10;99.90;;;;;;5085746;28;20051;-70
2023/03/26 01:34:12;;;;;;;13.73;2.17;;;7.10;99.90;;;;;;5084048;28;20034;-70
2023/03/26 01:37:03;;;;;;;15.93;3.00;;;7.00;99.90;;;;;;5089015;28;20042;-69
2023/03/26 01:39:47;;;;;;;11.38;2.22;;;7.00;99.90;;;;;;5089775;28;20058;-70
2023/03/26 01:42:25;;;;;;;13.82;2.42;;;7.00;99.90;;;;;;5085865;28;20044;-70
2023/03/26 01:45:09;;;;;;;14.98;2.40;;;6.90;99.90;;;;;;5054094;28;20091;-70
2023/03/26 01:47:36;;;;;;;10.55;2.00;;;6.90;99.90;;;;;;5080904;28;20394;-70
2023/03/26 01:50:02;;;;;;;9.32;1.77;;;6.90;99.90;;;;;;5089798;28;20477;-70
2023/03/26 01:52:30;;;;;;;9.00;2.03;;;6.90;99.90;;;;;;5062329;28;20106;-70
2023/03/26 01:54:56;;;;;;;8.27;1.77;;;6.90;99.90;;;;;;5069248;28;20131;-70
2023/03/26 01:57:58;;;;;;;9.25;2.00;;;6.80;99.90;;;;;;5060451;28;20054;-70
2023/03/26 02:00:30;;;;;;;9.48;2.00;;;6.90;99.90;;;;;;5072430;28;20521;-70
2023/03/26 02:03:08;;;;;;;9.23;2.10;;;6.80;99.90;;;;;;5073908;28;20127;-70
2023/03/26 02:05:56;;;;;;;9.68;2.08;;;6.80;99.90;;;;;;5052772;28;20368;-70
2023/03/26 02:08:34;;;;;;;9.07;2.10;;;6.80;99.90;;;;;;5084525;28;20048;-70
2023/03/26 02:11:04;;;;;;;11.57;2.00;;;6.80;99.90;;;;;;5079370;28;20032;-71
2023/03/26 02:13:30;;;;;;;12.52;2.58;;;6.80;99.90;;;;;;5073870;28;20400;-70
2023/03/26 02:16:02;;;;;;;7.28;2.00;;;6.80;99.90;;;;;;5073746;28;20047;-70
2023/03/26 02:18:37;;;;;;;8.63;1.75;;;6.80;99.90;;;;;;5075198;28;20040;-69
2023/03/26 02:21:12;;;;;;;9.43;1.85;;;6.80;99.90;;;;;;5070459;28;20056;-69
2023/03/26 02:23:45;;;;;;;10.05;2.00;;;6.80;99.90;;;;;;5074087;28;20510;-69
2023/03/26 02:26:13;;;;;;;10.68;2.30;;;6.80;99.90;;;;;;5069399;28;20076;-69
2023/03/26 02:28:39;;;;;;;13.05;2.33;;;6.80;99.90;;;;;;5087516;28;20052;-69
2023/03/26 02:31:08;;;;;;;7.97;2.15;;;6.80;99.90;;;;;;5071883;28;20032;-70
2023/03/26 02:33:34;;;;;;;14.90;2.58;;;6.80;99.90;;;;;;5082907;28;20047;-69
2023/03/26 02:36:03;;;;;;;12.75;2.00;;;6.80;99.90;;;;;;5091106;28;20035;-70
2023/03/26 02:38:34;;;;;;;9.13;2.22;;;6.80;99.90;;;;;;5072055;28;20344;-69
2023/03/26 02:41:03;;;;;;;10.90;2.13;;;6.80;99.90;;;;;;5089387;28;20048;-69
2023/03/26 02:43:29;;;;;;;9.48;1.92;;;6.80;99.90;;;;;;5088413;28;20051;-70
2023/03/26 02:45:55;;;;;;;13.35;1.98;;;6.80;99.90;;;;;;5090071;28;20089;-69
2023/03/26 02:48:21;;;;;;;12.25;2.30;;;6.80;99.90;;;;;;5072169;28;20043;-70
2023/03/26 02:50:49;;;;;;;7.65;1.92;;;6.80;99.90;;;;;;5070065;28;20045;-70
2023/03/26 02:53:18;;;;;;;4.38;1.50;;;6.80;99.90;;;;;;5072838;28;20060;-70
2023/03/26 02:55:43;;;;;;;7.13;1.58;;;6.80;99.90;;;;;;5090558;28;20059;-70
2023/03/26 02:58:11;;;;;;;3.17;1.20;;;6.80;99.90;;;;;;5078241;28;20044;-71
2023/03/26 03:00:37;;;;;;;5.35;1.45;;;6.80;99.90;;;;;;5072898;28;20076;-70
2023/03/26 03:03:03;;;;;;;8.50;1.98;;;6.80;99.90;;;;;;5075034;28;20255;-71
2023/03/26 03:05:32;;;;;;;;;;;6.80;99.90;;;;;;5073471;28;20044;-71
2023/03/26 03:07:58;;;;;;;8.45;1.50;;;6.80;99.90;;;;;;5084824;28;19973;-70
2023/03/26 03:10:26;;;;;;;7.13;1.98;;;6.80;99.90;;;;;;5092737;28;20044;-70
2023/03/26 03:12:52;;;;;;;5.50;1.50;;;6.80;99.90;;;;;;5088082;28;20068;-70
2023/03/26 03:15:19;;;;;;;7.60;1.45;;;6.80;99.90;;;;;;5092829;28;20123;-70
2023/03/26 03:17:44;;;;;;;;;;;6.80;99.90;;;;;;5084061;28;20484;-70
2023/03/26 03:20:10;;;;;;;7.40;1.75;;;6.80;99.90;;;;;;5072285;28;19916;-70
2023/03/26 03:22:36;;;;;;;9.98;2.15;;;6.80;99.90;;;;;;5076820;28;20079;-70
2023/03/26 03:25:03;;;;;;;9.10;1.67;;;6.80;99.90;;;;;;5085827;28;20080;-70
2023/03/26 03:27:30;;;;;;;10.43;1.90;;;6.80;99.90;;;;;;5091606;28;20052;-70
2023/03/26 03:29:57;;;;;;;9.95;1.80;;;6.80;99.90;;;;;;5075704;28;20494;-71
2023/03/26 03:32:24;;;;;;;9.32;2.00;;;6.80;99.90;;;;;;5085618;28;20046;-70
2023/03/26 03:34:50;;;;;;;11.27;2.10;;;6.80;99.90;;;;;;5091899;28;20040;-70
2023/03/26 03:37:16;;;;;;;9.55;2.17;;;6.80;99.90;;;;;;5089600;28;20051;-71
2023/03/26 03:39:42;;;;;;;7.00;1.50;;;6.80;99.90;;;;;;5092140;28;20040;-70
2023/03/26 03:42:08;;;;;;;9.27;1.77;;;6.70;99.90;;;;;;5083244;28;20055;-70
2023/03/26 03:44:34;;;;;;;6.20;1.42;;;6.60;99.90;;;;;;5054887;28;20188;-71
2023/03/26 03:47:00;;;;;;;6.50;1.20;;;6.60;99.90;;;;;;5071714;28;20134;-71
2023/03/26 03:49:25;;;;;;;6.38;1.10;;;6.50;99.90;;;;;;5056640;28;20040;-71
2023/03/26 03:51:51;;;;;;;7.45;1.35;;;6.50;99.90;;;;;;5088667;28;20032;-70
2023/03/26 03:54:17;;;;;;;3.45;1.00;;;6.40;99.90;;;;;;5089445;28;20482;-70
2023/03/26 03:56:44;;;;;;;6.43;1.27;;;6.30;99.90;;;;;;5092097;28;20087;-70
2023/03/26 03:59:10;;;;;;;7.15;1.65;;;6.30;99.90;;;;;;5076218;28;20571;-70
2023/03/26 04:01:36;;;;;;;6.07;1.15;;;6.30;99.90;;;;;;5074145;28;20147;-71
2023/03/26 04:04:02;;;;;;;4.25;1.20;;;6.20;99.90;;;;;;5061017;28;20040;-70
2023/03/26 04:06:29;;;;;;;5.43;1.23;;;6.10;99.90;;;;;;5071391;28;20049;-70
2023/03/26 04:08:55;;;;;;;;;;;6.10;99.90;;;;;;5071969;28;20052;-70
2023/03/26 04:11:21;;;;;;;4.72;1.00;;;6.10;99.90;;;;;;5071049;28;19943;-70
2023/03/26 04:13:47;;;;;;;4.82;0.90;;;6.10;99.90;;;;;;5080791;28;20036;-70
2023/03/26 04:16:14;;;;;;;4.35;1.25;;;6.10;99.90;;;;;;5090037;28;20043;-70
2023/03/26 04:18:39;;;;;;;;;;;6.10;99.90;;;;;;5083090;28;20048;-70
2023/03/26 04:21:06;;;;;;;3.38;0.90;;;6.10;99.90;;;;;;5080205;28;20010;-70
2023/03/26 04:23:33;;;;;;;2.85;0.90;;;6.10;99.90;;;;;;5085107;28;20041;-71
2023/03/26 04:26:05;;;;;;;4.95;1.00;;;6.20;99.90;;;;;;5076634;28;20063;-71
2023/03/26 04:28:45;;;;;;;3.97;0.90;;;6.10;99.90;;;;;;5081905;28;20036;-70
2023/03/26 04:31:17;;;;;;;3.70;1.00;;;6.20;99.90;;;;;;5091571;28;20048;-70
2023/03/26 04:33:46;;;;;;;5.38;0.98;;;6.20;99.90;;;;;;5083704;28;20434;-70
2023/03/26 04:36:14;;;;;;;6.53;1.20;;;6.20;99.90;;;;;;5071166;28;20071;-69
2023/03/26 04:38:47;;;;;;;3.97;1.10;;;6.20;99.90;;;;;;5079884;28;20036;-70
2023/03/26 04:41:14;;;;;;;8.23;1.45;;;6.20;99.90;;;;;;5092399;28;20131;-71
2023/03/26 04:43:46;;;;;;;;;;;6.30;99.90;;;;;;5078682;28;20046;-70
2023/03/26 04:46:20;;;;;;;7.35;1.20;;;6.30;99.90;;;;;;5079706;28;19920;-70
2023/03/26 04:48:46;;;;;;;6.40;1.70;;;6.40;99.90;;;;;;5086596;28;20044;-70
2023/03/26 04:51:16;;;;;;;;;;;6.40;99.90;;;;;;5088242;28;20486;-70
2023/03/26 04:54:05;;;;;;;6.30;1.50;;;6.40;99.90;;;;;;5089445;28;20444;-69
2023/03/26 04:56:53;;;;;;;7.43;1.88;;;6.40;99.90;;;;;;5090707;28;20102;-70
2023/03/26 04:59:33;;;;;;;6.53;1.60;;;6.40;99.90;;;;;;5081984;28;20133;-70
2023/03/26 05:02:00;;;;;;;7.18;1.40;;;6.40;99.90;;;;;;5074966;28;20483;-70
2023/03/26 05:04:32;;;;;;;7.78;1.60;;;6.40;99.90;;;;;;5080902;28;20059;-70
2023/03/26 05:06:58;;;;;;;5.45;1.23;;;6.40;99.90;;;;;;5071379;28;20048;-69
2023/03/26 05:09:27;;;;;;;3.33;1.20;;;6.40;99.90;;;;;;5077981;28;20230;-69
2023/03/26 05:11:53;;;;;;;3.30;0.90;;;6.40;99.90;;;;;;5086420;28;20036;-70
2023/03/26 05:14:19;;;;;;;3.90;1.08;;;6.40;99.90;;;;;;5076094;28;20841;-69
2023/03/26 05:16:46;;;;;;;5.65;1.42;;;6.40;99.90;;;;;;5072131;28;20234;-70
2023/03/26 05:19:13;;;;;;;6.43;1.50;;;6.30;99.90;;;;;;5075114;28;20044;-70
2023/03/26 05:21:39;;;;;;;6.20;1.55;;;6.40;99.90;;;;;;5088154;28;20082;-70
2023/03/26 05:24:05;;;;;;;9.63;1.70;;;6.30;99.90;;;;;;5080303;28;20044;-71
2023/03/26 05:26:32;;;;;;;4.80;1.50;;;6.30;99.90;;;;;;5073592;28;20516;-70
2023/03/26 05:28:58;;;;;;;7.47;1.33;;;6.30;99.90;;;;;;5083048;28;20488;-71
2023/03/26 05:31:29;;;;;;;9.02;1.45;;;6.20;99.90;;;;;;5090254;28;20560;-70
2023/03/26 05:33:56;;;;;;;8.25;2.17;;;6.10;99.90;;;;;;5088474;28;20051;-71
2023/03/26 05:36:22;;;;;;;;;;;6.10;99.90;;;;;;5071636;28;20048;-70
2023/03/26 05:38:48;;;;;;;8.55;1.67;;;6.00;99.90;;;;;;5070011;28;19928;-70
2023/03/26 05:41:15;;;;;;;;;;;6.00;99.90;;;;;;5070932;28;20396;-70
2023/03/26 05:43:42;;;;;;;6.23;1.30;;;6.00;99.90;;;;;;5070917;28;19920;-70
2023/03/26 05:46:08;;;;;;;5.75;1.38;;;6.00;99.90;;;;;;5089141;28;20370;-71
2023/03/26 05:48:34;;;;;;;7.65;1.92;;;6.00;99.90;;;;;;5072912;28;20131;-69
2023/03/26 05:51:00;;;;;;;7.53;2.35;;;6.00;99.90;;;;;;5088041;28;20040;-70
2023/03/26 05:53:26;;;;;;;8.93;2.10;;;6.00;99.90;;;;;;5073928;28;20107;-70
2023/03/26 05:55:59;;;;;;;8.20;2.13;;;6.10;99.90;;;;;;5085264;28;20048;-70
2023/03/26 05:58:31;;;;;;;5.78;1.60;;;6.10;99.90;;;;;;5074014;28;20047;-70
2023/03/26 06:01:15;;;;;;;4.78;1.70;;;6.10;99.90;;;;;;5084559;28;20048;-70
2023/03/26 06:03:43;;;;;;;6.75;1.50;;;6.20;99.90;;;;;;5071395;28;20047;-69
2023/03/26 06:06:15;;;;;;;5.75;1.30;;;6.20;99.90;;;;;;5073091;28;20352;-70
2023/03/26 06:08:47;;;;;;;3.20;1.15;;;6.20;99.90;;;;;;5069485;28;20221;-70
2023/03/26 06:11:14;;;;;;;4.32;1.17;;;6.20;99.90;;;;;;5053600;28;20044;-70
2023/03/26 06:13:40;;;;;;;6.05;1.52;;;6.30;99.90;;;;;;5071103;28;20109;-70
2023/03/26 06:16:07;;;;;;;;;;;6.30;99.90;;;;;;5088914;28;20351;-70
2023/03/26 06:18:32;;;;;;;5.25;1.05;;;6.30;99.90;;;;;;5089421;28;19920;-69
2023/03/26 06:20:58;;;;;;;5.72;1.40;;;6.40;99.90;;;;;;5087813;28;20122;-70
2023/03/26 06:23:24;;;;;;;7.47;1.60;;;6.40;99.90;;;;;;5087292;28;20074;-70
2023/03/26 06:25:50;;;;;;;7.85;1.70;;;6.40;99.90;;;;;;5079336;28;20178;-70
2023/03/26 06:28:16;;;;;;;7.95;1.45;;;6.50;99.90;;;;;;5078674;28;20127;-70
2023/03/26 06:30:42;;;;;;;13.18;2.10;;;6.50;99.90;;;;;;5081958;28;20482;-70
2023/03/26 06:33:07;;;;;;;6.35;1.30;;;6.60;99.90;;;;;;5067967;28;20078;-70
2023/03/26 06:35:33;;;;;;;6.55;1.30;;;6.60;99.90;;;;;;5082772;28;20403;-71
2023/03/26 06:37:59;;;;;;;5.22;1.40;;;6.60;99.90;;;;;;5084760;28;20036;-72
2023/03/26 06:40:25;;;;;;;5.85;1.30;;;6.70;99.90;;;;;;5084508;28;20508;-72
2023/03/26 06:42:51;;;;;;;9.98;1.73;;;6.70;99.90;;;;;;5091707;28;20063;-71
2023/03/26 06:45:17;;;;;;;11.95;2.38;;;6.80;99.90;;;;;;5084316;28;20047;-71
2023/03/26 06:47:42;;;;;;;7.43;1.80;;;6.80;99.90;;;;;;5073494;28;20163;-71
2023/03/26 06:50:10;;;;;;;5.18;1.33;;;6.80;99.90;;;;;;5064964;28;20050;-71
2023/03/26 06:52:36;;;;;;;9.02;1.77;;;6.80;99.90;;;;;;5070080;28;20049;-71
2023/03/26 06:55:02;;;;;;;6.32;1.52;;;6.80;99.90;;;;;;5066498;28;20130;-74
2023/03/26 06:57:28;;;;;;;8.23;1.67;;;6.80;99.90;;;;;;5086337;28;20039;-73
2023/03/26 06:59:53;;;;;;;8.82;1.60;;;6.80;99.90;;;;;;5072530;28;20057;-73
2023/03/26 07:02:19;;;;;;;7.88;1.42;;;6.80;99.90;;;;;;5088704;28;20542;-71
2023/03/26 07:04:45;;;;;;;7.57;1.80;;;6.80;99.90;;;;;;5089064;28;20043;-73
2023/03/26 07:07:12;;;;;;;4.85;1.45;;;6.80;99.90;;;;;;5074267;28;20053;-72
2023/03/26 07:09:37;;;;;;;11.45;1.90;;;6.80;99.90;;;;;;5084922;28;20045;-72
2023/03/26 07:12:03;;;;;;;11.55;1.77;;;6.90;99.90;;;;;;5079573;28;20036;-72
2023/03/26 07:14:31;;;;;;;4.55;1.27;;;6.90;99.90;;;;;;5072742;28;20045;-73
2023/03/26 07:16:57;;;;;;;9.32;1.70;;;6.90;99.90;;;;;;5080787;28;20056;-72
2023/03/26 07:19:23;;;;;;;;;;;7.00;99.90;;;;;;5086346;28;20135;-72
2023/03/26 07:21:49;;;;;;;8.27;1.40;;;6.90;99.90;;;;;;5067772;28;19919;-72
2023/03/26 07:24:16;;;;;;;5.88;1.50;;;7.00;99.90;;;;;;5083524;28;20264;-72
2023/03/26 07:27:05;;;;;;;8.52;1.50;;;7.00;99.90;;;;;;5072725;28;20563;-71
2023/03/26 07:29:50;;;;;;;7.47;1.58;;;7.00;99.90;;;;;;5091788;28;20402;-72
2023/03/26 07:32:27;;;;;;;4.93;1.05;;;7.20;99.90;;;;;;5075187;28;20111;-72
2023/03/26 07:35:12;;;;;;;;;;;7.20;99.90;;;;;;5089173;28;20044;-72
2023/03/26 07:38:15;;;;;;;9.10;1.52;;;7.30;99.90;;;;;;5082000;28;19925;-72
2023/03/26 07:41:00;;;;;;;7.00;1.70;;;7.20;99.90;;;;;;5090553;28;20434;-71
2023/03/26 07:43:47;;;;;;;8.60;1.70;;;7.40;96.30;;;;;;5079688;28;20044;-72
2023/03/26 07:46:14;;;;;;;9.65;1.70;;;7.30;99.90;;;;;;5072091;28;20048;-71
2023/03/26 07:48:47;;;;;;;9.65;1.70;;;7.30;90.50;;;;;;5075138;28;20121;-72
2023/03/26 07:51:14;;;;;;;8.50;1.80;;;7.30;77.00;;;;;;5057513;28;20418;-72
2023/03/26 07:53:41;;;;;;;7.70;1.90;;;7.40;58.50;;;;;;5079542;28;20139;-71
2023/03/26 07:56:37;;;;;;;11.15;1.95;;;7.40;42.40;;;;;;5059514;28;20480;-70
2023/03/26 07:59:10;;;;;;;9.15;1.70;;;7.50;65.50;;;;;;5080506;28;20134;-70
2023/03/26 08:02:00;;;;;;;5.68;1.73;;;7.40;18.80;;;;;;5076600;28;20084;-70
2023/03/26 08:04:44;;;;;;;6.55;1.60;;;7.50;47.50;;;;;;5084266;28;20036;-74
2023/03/26 08:07:28;;;;;;;4.65;1.40;;;7.50;29.10;;;;;;5079723;28;20087;-74
2023/03/26 08:10:34;;;;;;;7.07;1.80;;;7.70;29.60;;;;;;5091175;28;20044;-74
2023/03/26 08:13:21;;;;;;;11.85;1.80;;;7.80;30.10;;;;;;5059749;28;20419;-74
2023/03/26 08:16:12;;;;;;;8.20;1.50;;;8.00;1.00;;;;;;5071519;28;20522;-74
2023/03/26 08:19:00;;;;;;;9.75;2.42;;;8.20;1.00;;;;;;5089535;28;20526;-74
2023/03/26 08:21:30;;;;;;;10.20;1.83;;;8.20;13.30;;;;;;5091883;28;20044;-75
2023/03/26 08:24:15;;;;;;;4.65;1.00;;;8.10;1.00;;;;;;5071227;28;20048;-74
2023/03/26 08:26:57;;;;;;;6.32;1.50;;;8.10;1.00;;;;;;5072320;28;20061;-74
2023/03/26 08:29:29;;;;;;;4.93;1.40;;;8.40;1.00;;;;;;5070362;28;20072;-74
2023/03/26 08:31:56;;;;;;;5.65;1.80;;;8.60;1.00;;;;;;5074381;28;20051;-74
2023/03/26 08:34:22;;;;;;;5.82;1.58;;;8.70;1.00;;;;;;5091315;28;20111;-74
2023/03/26 08:36:48;;;;;;;7.80;1.38;;;8.70;1.00;;;;;;5089594;28;20052;-74
2023/03/26 08:39:14;;;;;;;8.63;1.73;;;8.70;1.00;;;;;;5074281;28;20048;-74
2023/03/26 08:42:00;;;;;;;7.88;1.45;;;8.60;99.90;;;;;;5090016;28;20071;-74
2023/03/26 08:44:46;;;;;;;8.00;1.70;;;8.50;1.00;;;;;;5070462;28;20079;-75
2023/03/26 08:47:30;;;;;;;4.78;1.27;;;8.20;1.00;;;;;;5072995;28;20047;-74
2023/03/26 08:50:33;;;;;;;3.65;0.98;;;8.20;1.00;;;;;;5053712;28;20097;-74
2023/03/26 08:53:06;;;;;;;4.20;1.17;;;8.40;1.00;;;;;;5063142;28;20084;-74
2023/03/26 08:55:56;;;;;;;7.93;1.60;;;8.90;1.00;;;;;;5072909;28;20025;-74
2023/03/26 08:58:37;;;;;;;9.57;1.52;;;9.30;1.00;;;;;;5064675;28;20054;-74
2023/03/26 09:01:24;;;;;;;6.38;1.70;;;9.40;1.00;;;;;;5090541;28;20048;-74
2023/03/26 09:04:20;;;;;;;6.00;1.58;;;9.70;1.00;;;;;;5075142;28;20055;-74
2023/03/26 09:07:16;;;;;;;7.68;1.60;;;9.90;1.00;;;;;;5071279;28;20476;-74
2023/03/26 09:09:50;;;;;;;8.75;1.80;;;9.50;1.00;;;;;;5070920;28;20455;-74
2023/03/26 09:12:55;;;;;;;8.13;1.75;;;9.40;1.00;;;;;;5053958;28;20036;-73
2023/03/26 09:15:45;;;;;;;6.80;1.60;;;9.10;99.90;;;;;;5079512;28;20040;-74
2023/03/26 09:18:53;;;;;;;7.57;1.58;;;9.20;1.00;;;;;;5084954;28;20527;-74
2023/03/26 09:21:45;;;;;;;6.30;1.63;;;9.00;99.90;;;;;;5073240;28;20052;-73
2023/03/26 09:24:59;;;;;;;8.05;1.85;;;9.00;1.00;;;;;;5075304;28;20048;-74
2023/03/26 09:27:28;;;;;;;7.50;1.70;;;9.10;1.00;;;;;;5069132;28;20113;-74
2023/03/26 09:30:29;;;;;;;7.45;1.75;;;9.10;99.90;;;;;;5069820;28;20044;-74
2023/03/26 09:33:06;;;;;;;4.05;1.30;;;8.90;99.90;;;;;;5089793;28;20434;-73
2023/03/26 09:35:45;;;;;;;7.55;1.67;;;8.90;99.90;;;;;;5073611;28;20040;-74
2023/03/26 09:38:42;;;;;;;6.75;1.60;;;8.80;1.00;;;;;;5088554;28;20048;-74
2023/03/26 09:41:16;;;;;;;7.65;1.30;;;8.90;99.90;;;;;;5090198;28;20130;-74
2023/03/26 09:44:03;;;;;;;8.85;2.20;;;9.10;99.90;;;;;;5082158;28;20051;-74
2023/03/26 09:46:32;;;;;;;6.13;1.52;;;9.10;1.00;;;;;;5071980;28;20055;-75
2023/03/26 09:49:22;;;;;;;3.28;1.30;;;9.20;99.90;;;;;;5080463;28;20044;-75
2023/03/26 09:51:57;;;;;;;5.07;1.40;;;9.40;99.90;;;;;;5053638;28;20059;-73
2023/03/26 09:54:43;;;;;;;5.53;1.40;;;9.40;1.00;;;;;;5053787;28;20056;-74
2023/03/26 09:57:25;;;;;;;6.43;2.05;;;9.20;1.00;;;;;;5069899;28;20056;-75
2023/03/26 10:00:25;;;;;;;7.93;2.05;;;9.10;1.00;;;;;;5085317;28;20386;-74
2023/03/26 10:03:00;;;;;;;8.88;1.65;;;8.90;1.00;;;;;;5088821;28;20050;-74
2023/03/26 10:05:55;;;;;;;6.18;1.45;;;8.90;1.00;;;;;;5069844;28;20496;-74
2023/03/26 10:08:27;;;;;;;6.00;1.65;;;8.80;1.00;;;;;;5071946;28;20119;-74
2023/03/26 10:11:08;;;;;;;10.27;1.77;;;8.90;1.00;;;;;;5074241;28;20100;-74
2023/03/26 10:13:49;;;;;;;7.35;1.50;;;8.90;1.00;;;;;;5085659;28;20044;-74
2023/03/26 10:16:58;;;;;;;9.80;2.13;;;9.00;1.00;;;;;;5057321;28;20557;-76
2023/03/26 10:19:42;;;;;;;;;;;9.00;1.00;;;;;;5074298;28;20041;-72
2023/03/26 10:22:46;;;;;;;9.85;2.55;;;9.00;1.00;;;;;;5070863;28;19927;-72
2023/03/26 10:25:35;;;;;;;8.23;1.92;;;9.20;1.00;;;;;;5056010;28;20060;-72
2023/03/26 10:28:24;;;;;;;8.65;1.63;;;9.00;99.90;;;;;;5078581;28;20056;-72
2023/03/26 10:31:27;;;;;;;8.25;2.35;;;8.90;99.90;;;;;;5077295;28;20032;-72
2023/03/26 10:34:07;;;;;;;7.40;1.58;;;8.90;99.90;;;;;;5075402;28;20344;-72
2023/03/26 10:36:59;;;;;;;6.40;1.73;;;8.90;99.90;;;;;;5075383;28;20075;-72
2023/03/26 10:39:31;;;;;;;5.03;1.40;;;8.80;99.90;;;;;;5084620;28;20048;-71
2023/03/26 10:42:11;;;;;;;10.30;1.77;;;9.00;99.90;;;;;;5070990;28;20157;-72
2023/03/26 10:44:57;;;;;;;4.95;1.33;;;8.90;99.90;;;;;;5082442;28;20052;-72
2023/03/26 10:47:57;;;;;;;8.75;1.67;;;8.90;1.00;;;;;;5074633;28;20059;-71
2023/03/26 10:50:52;;;;;;;7.18;1.40;;;8.90;99.90;;;;;;5062582;28;20395;-72
2023/03/26 10:53:27;;;;;;;7.47;1.55;;;9.00;99.90;;;;;;5087459;28;20083;-71
2023/03/26 10:56:17;;;;;;;8.18;1.60;;;9.10;99.90;;;;;;5076940;28;20048;-72
2023/03/26 10:58:43;;;;;;;7.88;1.60;;;9.30;99.90;;;;;;5074757;28;20082;-72
2023/03/26 11:01:42;;;;;;;6.88;1.88;;;9.40;99.90;;;;;;5082807;28;20059;-73
2023/03/26 11:04:14;;;;;;;7.50;1.77;;;9.10;99.90;;;;;;5083478;28;20392;-71
2023/03/26 11:06:45;;;;;;;10.57;2.25;;;9.20;99.90;;;;;;5079026;28;20044;-72
2023/03/26 11:09:38;;;;;;;9.70;2.00;;;9.30;99.90;;;;;;5071324;28;20105;-72
2023/03/26 11:12:20;;;;;;;9.93;2.10;;;9.20;99.90;;;;;;5083598;28;20128;-72
2023/03/26 11:14:57;;;;;;;4.68;1.58;;;9.10;99.90;;;;;;5081807;28;20447;-72
2023/03/26 11:17:50;;;;;;;7.90;1.70;;;8.90;99.90;;;;;;5086293;28;20402;-72
2023/03/26 11:20:36;;;;;;;8.00;1.95;;;8.90;99.90;;;;;;5062496;28;20044;-72
2023/03/26 11:23:17;;;;;;;7.72;2.00;;;9.00;99.90;;;;;;5080392;28;20036;-72
2023/03/26 11:25:49;;;;;;;6.10;1.88;;;8.80;99.90;;;;;;5091627;28;20044;-72
2023/03/26 11:28:44;;;;;;;8.68;2.33;;;8.80;99.90;;;;;;5090979;28;20123;-72
2023/03/26 11:31:34;;;;;;;10.75;1.63;;;8.90;99.90;;;;;;5092464;28;20554;-71
2023/03/26 11:34:05;;;;;;;5.40;1.52;;;8.80;99.90;;;;;;5092516;28;20514;-72
2023/03/26 11:36:43;;;;;;;8.00;1.60;;;8.90;99.90;;;;;;5077913;28;20060;-72
2023/03/26 11:39:18;;;;;;;8.68;1.70;;;9.00;99.90;;;;;;5098717;28;20056;-71
2023/03/26 11:41:44;;;;;;;7.15;1.98;;;9.00;99.90;;;;;;5073066;28;20047;-72
2023/03/26 11:44:36;;;;;;;8.00;1.85;;;9.00;99.90;;;;;;5073590;28;20040;-72
2023/03/26 11:47:08;;;;;;;9.23;1.58;;;8.90;99.90;;;;;;5072577;28;20079;-72
2023/03/26 11:49:36;;;;;;;7.07;1.58;;;8.90;99.90;;;;;;5077825;28;20072;-72
2023/03/26 11:52:02;;;;;;;7.28;1.60;;;9.20;99.90;;;;;;5092119;28;20079;-72
2023/03/26 11:54:28;;;;;;;6.40;1.58;;;9.30;99.90;;;;;;5072515;28;20061;-72
2023/03/26 11:57:12;;;;;;;6.97;1.50;;;9.90;99.90;;;;;;5076904;28;20466;-72
2023/03/26 11:59:46;;;;;;;7.03;1.60;;;10.10;99.90;;;;;;5077924;28;20045;-72
2023/03/26 12:02:12;;;;;;;7.20;1.60;;;10.40;99.90;;;;;;5092554;28;20062;-72
2023/03/26 12:04:49;;;;;;;6.25;1.48;;;10.30;99.90;;;;;;5090789;28;20480;-73
2023/03/26 12:07:30;;;;;;;8.35;1.30;;;10.10;99.90;;;;;;5071242;28;20033;-73
2023/03/26 12:09:57;;;;;;;9.05;1.35;;;10.20;99.90;;;;;;5072522;28;21770;-73
2023/03/26 12:12:37;;;;;;;8.35;1.70;;;10.20;99.90;;;;;;5071474;28;20488;-73
2023/03/26 12:15:11;;;;;;;6.32;1.35;;;10.00;99.90;;;;;;5076225;28;20317;-73
2023/03/26 12:17:38;;;;;;;6.22;1.70;;;9.90;99.90;;;;;;5073059;28;20048;-73
2023/03/26 12:20:25;;;;;;;6.28;1.65;;;9.90;99.90;;;;;;5078333;28;20055;-73
2023/03/26 12:22:57;;;;;;;7.60;1.70;;;10.00;99.90;;;;;;5074926;28;20114;-73
2023/03/26 12:25:32;;;;;;;7.53;1.90;;;10.00;99.90;;;;;;5075956;28;20071;-73
2023/03/26 12:28:03;;;;;;;6.05;1.42;;;9.90;99.90;;;;;;5073947;28;20076;-73
2023/03/26 12:30:38;;;;;;;5.70;1.50;;;9.80;99.90;;;;;;5075495;28;20425;-73
2023/03/26 12:33:18;;;;;;;5.95;1.35;;;9.70;99.90;;;;;;5074497;28;20041;-73
2023/03/26 12:35:44;;;;;;;8.85;1.75;;;9.70;99.90;;;;;;5069869;28;20091;-73
2023/03/26 12:38:44;;;;;;;4.57;1.45;;;9.80;99.90;;;;;;5074603;28;20072;-73
2023/03/26 12:41:19;;;;;;;6.13;1.42;;;9.80;99.90;;;;;;5067989;28;20134;-73
2023/03/26 12:43:50;;;;;;;4.57;1.35;;;10.20;99.90;;;;;;5073495;28;20053;-73
2023/03/26 12:46:19;;;;;;;5.75;1.25;;;10.60;99.90;;;;;;5071971;28;20082;-73
2023/03/26 12:48:46;;;;;;;6.63;1.70;;;10.70;99.90;;;;;;5054643;28;20040;-73
2023/03/26 12:51:40;;;;;;;6.18;1.85;;;10.70;99.90;;;;;;5057295;28;20039;-73
2023/03/26 12:54:15;;;;;;;5.88;1.30;;;10.50;99.90;;;;;;5073345;28;20503;-72
2023/03/26 12:57:15;;;;;;;7.03;1.40;;;10.40;99.90;;;;;;5074016;28;20063;-73
2023/03/26 13:00:12;;;;;;;4.75;1.20;;;9.80;99.90;;;;;;5074056;28;20052;-73
2023/03/26 13:03:06;;;;;;;5.28;1.20;;;9.60;99.90;;;;;;5072190;28;20525;-73
2023/03/26 13:05:38;;;;;;;7.13;1.52;;;9.50;99.90;;;;;;5079310;28;20079;-73
2023/03/26 13:08:41;;;;;;;4.97;1.20;;;9.40;99.90;;;;;;5062686;28;20381;-73
2023/03/26 13:11:22;;;;;;;5.57;1.13;;;9.20;99.90;;;;;;5075712;28;20076;-73
2023/03/26 13:14:15;;;;;;;9.02;1.50;;;9.20;99.90;;;;;;5072138;28;20051;-73
2023/03/26 13:17:14;;;;;;;8.05;1.60;;;9.10;99.90;;;;;;5070654;28;22112;-73
2023/03/26 13:20:10;;;;;;;6.15;1.35;;;9.00;99.90;;;;;;5055552;28;20075;-73
2023/03/26 13:22:55;;;;;;;9.75;1.50;;;8.80;99.90;;;;;;5077630;28;20052;-73
2023/03/26 13:25:37;;;;;;;5.25;1.33;;;8.80;99.90;;;;;;5057961;28;20052;-73
2023/03/26 13:28:21;;;;;;;7.93;1.25;;;8.80;99.90;;;;;;5076399;28;20044;-73
2023/03/26 13:31:25;;;;;;;7.13;1.40;;;8.80;99.90;;;;;;5076968;28;20044;-73
2023/03/26 13:34:09;;;;;;;6.90;1.40;;;8.90;99.90;;;;;;5073950;28;20059;-73
2023/03/26 13:36:50;;;;;;;4.13;1.33;;;8.90;99.90;;;;;;5068930;28;20136;-72
2023/03/26 13:39:32;;;;;;;6.97;1.50;;;8.80;99.90;;;;;;5075902;28;20055;-71
2023/03/26 13:42:04;;;;;;;8.90;1.30;;;8.60;99.90;;;;;;5075787;28;20553;-72